Bellinzona, Switzerland
Current Conditions -  °F | °C
As of 6:50 PM on Thursday 23 Oct 2014 (Local Time) from LSZL Reporting Station
Clear Clear  
Wind Chill: 63°   Ceiling: Unl
Heat Index: 63°   Visibility: 6mi
Dew Point: 30°   Wind: 10mph
Humidity: 30%   Direction: 180°S
Pressure: 29.88"   Gusts: NA
Location:  46.2°N, 9.02°E
Report Text: LSZL 231650Z AUTO 18009KT 130V230 9999NDV NCD 17/M01 Q1012 RMK BLU
Loading
Personal Weather Stations






























Interactive Weather Map
Tropical Storm Tracking
New forecast layout! Learn more

10-Day Weather Forecast

Advertisements
Track Severe Weather on mobile